• Join FlightAware (Why Join?)
  • Login
  • US Flag 
12:35AM EDT


 

Airport Tracker/Info


-or-


 

Live Flight TrackerFlight Track Log ✈ XLS218 ✈ 27-Jul-2013 ✈ KALB - KISP

Flight Track Log - Related Links

Times and Time Zones

All times are in EDT time to prevent confusion due to time zone crossing. See the XLS218 flight status page for this flight to view local times or setup timezone preferences in your user account.

Time Position Orientation Groundspeed Altitude Reporting Facility
EDT Latitude Longitude Course Direction KTS MPH feet Rate Location/Type
10:28AM 42.7214 -73.8050 145° Southeast 225 259 1,200  Level Boston Center
10:29AM 42.6597 -73.7472 145° Southeast 253 291 3,600 1,440 Climbing Boston Center
10:30AM 42.5997 -73.6925 146° Southeast 272 313 4,300 1,500 Climbing Boston Center
10:31AM 42.5586 -73.6436 139° Southeast 295 339 6,100 2,460 Climbing Boston Center
10:32AM 42.5136 -73.5639 127° Southeast 301 346 8,400 2,340 Climbing Boston Center
10:33AM 42.4583 -73.4644 127° Southeast 302 348 10,900 1,260 Climbing Boston Center
10:34AM 42.3989 -73.3594 127° Southeast 359 413 11,000 720 Climbing Boston Center
10:35AM 42.3350 -73.2489 128° Southeast 380 437 12,400 960 Climbing Boston Center
10:36AM 42.2547 -73.1133 129° Southeast 400 460 13,000 240 Climbing Boston Center
10:37AM 42.1842 -73.0228 136° Southeast 400 460 13,000  Level Boston Center
10:38AM 42.0972 -72.9044 135° Southeast 400 460 13,000  Level Boston Center
10:39AM 42.0183 -72.7978 135° Southeast 406 467 13,000  Level Boston Center
10:40AM 41.9417 -72.6914 134° Southeast 406 467 13,000 -240 Level Boston Center
10:41AM 41.8731 -72.5711 127° Southeast 407 468 12,600 -720 Descending Boston Center
10:42AM 41.8147 -72.4622 126° Southeast 407 468 11,700 -840 Descending Boston Center
10:43AM 41.7417 -72.3317 127° Southeast 402 463 11,000 -360 Descending Boston Center
10:44AM 41.6769 -72.2150 127° Southeast 397 457 11,000  Level Boston Center
10:45AM 41.6122 -72.0958 126° Southeast 391 450 11,000 -540 Level Boston Center
10:46AM 41.5078 -72.0575 165° South 334 384 9,900 -540 Descending Boston Center
10:47AM 41.4308 -72.1356 217° Southwest 344 396 9,900 -180 Level Boston Center
10:50AM 41.2667 -72.3500 225° Southwest 350 403 9,400 -780 Descending New York TRACON
10:51AM 41.2000 -72.4333 223° Southwest 282 325 7,500 -1,740 Descending New York TRACON
10:52AM 41.1500 -72.5000 225° Southwest 269 310 6,000 -1,200 Descending New York TRACON
10:53AM 41.1000 -72.5667 225° Southwest 250 288 5,100 -540 Descending New York TRACON
10:54AM 41.0667 -72.6333 236° Southwest 256 295 5,000 -60 Descending New York TRACON
10:55AM 41.0167 -72.7167 232° Southwest 262 302 5,000 -420 Level New York TRACON
10:56AM 40.9833 -72.8000 242° Southwest 261 300 4,300 -1,380 Descending New York TRACON
10:57AM 40.9333 -72.8667 225° Southwest 253 291 2,300 -1,140 Descending New York TRACON
10:58AM 40.9000 -72.9333 237° Southwest 233 268 2,100 -360 Descending New York TRACON
10:59AM 40.8667 -73.0000 237° Southwest 210 242 1,600 -480 Descending New York TRACON
11:00AM 40.8333 -73.0500 229° Southwest 179 206 1,200 -720 Descending New York TRACON
11:01AM 40.8000 -73.0833 217° Southwest 146 168 300 -900 Descending New York TRACON
11:03AM 40.7952 -73.1002 237° Southwest  Level Estimated